createdAt,value
2018-05-09T00:22:21.629Z,12.00
2018-05-09T00:24:50.208Z,12.00
2018-05-09T00:27:18.689Z,12.10
2018-05-09T00:29:47.370Z,11.80
2018-05-09T00:32:15.857Z,11.60
2018-05-09T00:34:44.325Z,11.90
2018-05-09T00:37:12.846Z,11.90
2018-05-09T00:39:41.411Z,11.90
2018-05-09T00:42:09.894Z,12.00
2018-05-09T00:44:38.387Z,11.90
2018-05-09T00:47:06.877Z,11.70
2018-05-09T00:49:35.368Z,11.60
2018-05-09T00:52:03.822Z,11.60
2018-05-09T00:54:33.335Z,11.70
2018-05-09T00:57:01.918Z,11.70
2018-05-09T00:59:30.412Z,11.90
2018-05-09T01:01:58.885Z,11.80
2018-05-09T01:04:27.368Z,11.80
2018-05-09T01:06:55.912Z,11.90
2018-05-09T01:09:25.179Z,11.50
2018-05-09T01:11:54.473Z,11.40
2018-05-09T01:14:23.037Z,11.30
2018-05-09T01:16:51.525Z,11.40
2018-05-09T01:19:19.805Z,11.40
2018-05-09T01:21:48.325Z,11.30
2018-05-09T01:24:16.561Z,11.40
2018-05-09T01:26:46.065Z,11.30
2018-05-09T01:29:14.540Z,11.30
2018-05-09T01:31:43.043Z,11.20
2018-05-09T01:34:11.530Z,11.10
2018-05-09T01:36:40.005Z,11.10
2018-05-09T01:39:08.497Z,11.00
2018-05-09T01:41:37.076Z,11.00
2018-05-09T01:44:05.644Z,11.10
2018-05-09T01:46:34.105Z,11.30
2018-05-09T01:49:02.584Z,11.40
2018-05-09T01:51:31.053Z,11.40
2018-05-09T01:54:00.389Z,11.10
2018-05-09T01:56:28.865Z,11.10
2018-05-09T01:58:57.358Z,11.10
2018-05-09T02:01:25.829Z,10.90
2018-05-09T02:03:54.502Z,10.90
2018-05-09T02:06:23.005Z,10.80
2018-05-09T02:08:54.543Z,10.60
2018-05-09T02:11:23.041Z,10.60
2018-05-09T02:13:51.589Z,10.70
2018-05-09T02:16:20.824Z,10.90
2018-05-09T02:18:49.302Z,10.90
2018-05-09T02:21:17.808Z,11.00
2018-05-09T02:23:46.279Z,11.10
2018-05-09T02:26:14.764Z,11.20
2018-05-09T02:28:43.342Z,11.30
2018-05-09T02:31:11.927Z,11.20
2018-05-09T02:33:42.104Z,11.00
2018-05-09T02:36:10.606Z,11.00
2018-05-09T02:38:39.851Z,11.00
2018-05-09T02:41:08.340Z,10.90
2018-05-09T02:43:36.901Z,11.00
2018-05-09T02:46:05.557Z,10.90
2018-05-09T02:48:34.885Z,11.00
2018-05-09T02:51:03.377Z,10.90
2018-05-09T02:53:32.064Z,10.90
2018-05-09T02:56:00.673Z,10.70
2018-05-09T02:58:29.170Z,10.90
2018-05-09T03:00:57.646Z,10.80
2018-05-09T03:03:26.137Z,10.90
2018-05-09T03:05:54.617Z,10.80
2018-05-09T03:08:23.102Z,10.90
2018-05-09T03:10:52.374Z,10.80
2018-05-09T03:13:20.871Z,10.70
2018-05-09T03:15:49.341Z,10.80
2018-05-09T03:18:18.413Z,10.50
2018-05-09T03:20:46.892Z,10.40
2018-05-09T03:23:15.402Z,10.20
2018-05-09T03:25:43.876Z,10.30
2018-05-09T03:28:12.347Z,10.30
2018-05-09T03:30:40.889Z,10.50
2018-05-09T03:33:10.121Z,10.50
2018-05-09T03:35:38.608Z,10.20
2018-05-09T03:38:07.092Z,10.10
2018-05-09T03:40:35.685Z,10.20
2018-05-09T03:43:04.150Z,10.30
2018-05-09T03:45:32.617Z,10.30
2018-05-09T03:48:01.869Z,10.10
2018-05-09T03:50:30.492Z,9.90
2018-05-09T03:52:59.741Z,9.80
2018-05-09T03:55:28.233Z,9.70
2018-05-09T03:57:56.713Z,9.80
2018-05-09T04:00:25.188Z,9.90
2018-05-09T04:03:04.928Z,9.70
2018-05-09T04:05:44.765Z,9.80
2018-05-09T04:08:24.537Z,10.20
2018-05-09T04:10:53.021Z,10.20
2018-05-09T04:13:21.632Z,10.40
2018-05-09T04:15:50.123Z,10.30
2018-05-09T04:18:18.285Z,10.30
2018-05-09T04:20:46.788Z,10.30
2018-05-09T04:23:15.546Z,10.50
2018-05-09T04:25:44.033Z,10.20
2018-05-09T04:28:12.622Z,10.10
2018-05-09T04:30:41.301Z,10.10
2018-05-09T04:33:09.865Z,10.20
2018-05-09T04:35:38.345Z,10.30
2018-05-09T04:38:06.829Z,10.40
2018-05-09T04:40:35.377Z,10.50
2018-05-09T04:43:04.614Z,10.50
2018-05-09T04:45:33.246Z,10.50
2018-05-09T04:48:01.717Z,10.60
2018-05-09T04:50:30.221Z,10.60
2018-05-09T04:52:59.469Z,10.80
2018-05-09T04:55:27.982Z,10.70
2018-05-09T04:57:56.657Z,10.80
2018-05-09T05:00:25.189Z,10.90
2018-05-09T05:02:53.700Z,11.00
2018-05-09T05:05:22.182Z,11.20
2018-05-09T05:07:50.686Z,11.30
2018-05-09T05:10:19.246Z,11.50
2018-05-09T05:12:47.725Z,11.60
2018-05-09T05:15:16.201Z,11.60
2018-05-09T05:17:44.691Z,11.70
2018-05-09T05:20:13.236Z,11.80
2018-05-09T05:22:42.485Z,12.30
2018-05-09T05:25:10.732Z,12.20
2018-05-09T05:27:39.313Z,12.50
2018-05-09T05:30:08.625Z,12.90
2018-05-09T05:32:37.135Z,12.80
2018-05-09T05:35:05.619Z,13.00
2018-05-09T05:37:34.079Z,13.30
2018-05-09T05:40:02.738Z,13.40
2018-05-09T05:42:31.989Z,13.50
2018-05-09T05:45:00.532Z,13.50
2018-05-09T05:47:29.157Z,13.50
2018-05-09T05:49:57.740Z,13.60
2018-05-09T05:52:26.227Z,13.60
2018-05-09T05:54:54.717Z,13.70
2018-05-09T05:57:23.281Z,13.80
2018-05-09T05:59:51.777Z,14.00
2018-05-09T06:02:20.761Z,14.20
2018-05-09T06:04:49.291Z,14.40
2018-05-09T06:07:17.831Z,14.50
